createdAt,value
2023-02-27T00:00:15.084Z,94810.81
2023-02-27T00:02:47.758Z,94810.72
2023-02-27T00:05:15.098Z,94810.53
2023-02-27T00:07:42.593Z,94821.31
2023-02-27T00:10:10.927Z,94824.88
2023-02-27T00:12:37.831Z,94818.19
2023-02-27T00:15:23.707Z,94813.47
2023-02-27T00:17:50.585Z,94810.06
2023-02-27T00:20:19.226Z,94827.97
2023-02-27T00:22:46.332Z,94822.84
2023-02-27T00:25:14.535Z,94828.41
2023-02-27T00:27:42.002Z,94826.78
2023-02-27T00:30:12.653Z,94825.19
2023-02-27T00:32:40.024Z,94819.69
2023-02-27T00:35:09.370Z,94824.78
2023-02-27T00:37:37.260Z,94821.97
2023-02-27T00:40:05.478Z,94838.56
2023-02-27T00:42:32.948Z,94825.97
2023-02-27T00:44:59.728Z,94830.38
2023-02-27T00:47:26.882Z,94831.41
2023-02-27T00:49:53.799Z,94833.47
2023-02-27T00:52:20.581Z,94837.38
2023-02-27T00:54:47.298Z,94834.09
2023-02-27T00:57:14.366Z,94833.31
2023-02-27T00:59:41.333Z,94841.81
2023-02-27T01:02:08.335Z,94838.06
2023-02-27T01:04:35.452Z,94832.44
2023-02-27T01:07:03.416Z,94832.63
2023-02-27T01:09:30.124Z,94825.53
2023-02-27T01:11:57.875Z,94831.34
2023-02-27T01:14:25.453Z,94838.19
2023-02-27T01:16:52.169Z,94835.63
2023-02-27T01:19:19.111Z,94842.84
2023-02-27T01:21:46.230Z,94844.41
2023-02-27T01:24:13.280Z,94840.66
2023-02-27T01:26:40.787Z,94838.16
2023-02-27T01:29:09.505Z,94827.78
2023-02-27T01:31:36.236Z,94834.66
2023-02-27T01:34:03.017Z,94825.19
2023-02-27T01:36:31.623Z,94847.34
2023-02-27T01:38:58.404Z,94838.16
2023-02-27T01:41:25.409Z,94830.06
2023-02-27T01:44:00.353Z,94819.28
2023-02-27T01:46:29.429Z,94829.34
2023-02-27T01:49:02.452Z,94826.06
2023-02-27T01:51:32.994Z,94825.06
2023-02-27T01:54:02.993Z,94833.56
2023-02-27T01:56:31.679Z,94836.25
2023-02-27T01:59:04.349Z,94839.69
2023-02-27T02:01:33.495Z,94835.50
2023-02-27T02:04:02.458Z,94835.16
2023-02-27T02:06:35.105Z,94819.16
2023-02-27T02:09:02.621Z,94820.41
2023-02-27T02:11:29.903Z,94831.22
2023-02-27T02:13:58.949Z,94823.78
2023-02-27T02:16:46.926Z,94835.16
2023-02-27T02:19:37.784Z,94827.88
2023-02-27T02:22:35.254Z,94822.69
2023-02-27T02:25:23.337Z,94831.84
2023-02-27T02:28:05.769Z,94828.66
2023-02-27T02:31:03.827Z,94840.25
2023-02-27T02:34:02.592Z,94843.19
2023-02-27T02:37:10.694Z,94824.81
2023-02-27T02:40:12.612Z,94822.38
2023-02-27T02:42:53.357Z,94821.22
2023-02-27T02:45:48.465Z,94824.09
2023-02-27T02:48:39.259Z,94811.63
2023-02-27T02:51:20.307Z,94805.56
2023-02-27T02:54:07.026Z,94809.75
2023-02-27T02:56:43.953Z,94811.25
2023-02-27T03:00:09.094Z,94814.78
2023-02-27T03:02:46.970Z,94815.50
2023-02-27T03:05:41.566Z,94811.09
2023-02-27T03:08:16.893Z,94805.75
2023-02-27T03:10:48.665Z,94812.16
2023-02-27T03:13:26.079Z,94814.50
2023-02-27T03:16:19.040Z,94811.25
2023-02-27T03:18:52.338Z,94818.38
2023-02-27T03:21:27.947Z,94824.00
2023-02-27T03:24:00.610Z,94812.59
2023-02-27T03:26:34.208Z,94826.19
2023-02-27T03:29:04.712Z,94810.81
2023-02-27T03:31:40.001Z,94810.03
2023-02-27T03:34:23.412Z,94818.25
2023-02-27T03:37:06.637Z,94818.50
2023-02-27T03:39:53.094Z,94825.41
2023-02-27T03:42:47.818Z,94824.50
2023-02-27T03:45:39.864Z,94823.19
2023-02-27T03:48:09.162Z,94816.22
2023-02-27T03:50:37.493Z,94821.16
2023-02-27T03:53:13.280Z,94823.28
2023-02-27T03:55:45.706Z,94826.91
2023-02-27T03:58:13.041Z,94832.22
2023-02-27T04:00:39.989Z,94830.59
2023-02-27T04:03:07.562Z,94833.94
2023-02-27T04:05:34.640Z,94834.41
2023-02-27T04:08:37.086Z,94817.75
2023-02-27T04:11:22.261Z,94826.00
2023-02-27T04:14:21.053Z,94827.34
2023-02-27T04:17:14.853Z,94836.59
2023-02-27T04:20:18.919Z,94832.00
2023-02-27T04:23:02.828Z,94839.63
2023-02-27T04:25:50.126Z,94844.13
2023-02-27T04:28:45.242Z,94831.47
2023-02-27T04:31:47.299Z,94819.56
2023-02-27T04:34:43.486Z,94844.44
2023-02-27T04:37:22.822Z,94824.41
2023-02-27T04:40:00.264Z,94837.84
2023-02-27T04:42:35.058Z,94825.84
2023-02-27T04:45:07.037Z,94829.09
2023-02-27T04:47:49.668Z,94823.53
2023-02-27T04:50:25.556Z,94828.75
2023-02-27T04:53:03.549Z,94836.50
2023-02-27T04:55:36.146Z,94838.53
2023-02-27T04:58:09.756Z,94819.16
2023-02-27T05:00:39.041Z,94823.16
2023-02-27T05:03:12.720Z,94839.50
2023-02-27T05:05:43.585Z,94825.59
2023-02-27T05:08:26.763Z,94821.38
2023-02-27T05:11:15.401Z,94810.81
2023-02-27T05:13:51.377Z,94822.22
2023-02-27T05:16:53.160Z,94831.59
2023-02-27T05:19:20.931Z,94825.72
2023-02-27T05:21:54.704Z,94822.78
2023-02-27T05:24:57.471Z,94825.34
2023-02-27T05:27:35.784Z,94843.94
2023-02-27T05:30:36.056Z,94826.19
2023-02-27T05:33:24.865Z,94841.81
2023-02-27T05:35:58.213Z,94836.16
2023-02-27T05:38:32.160Z,94840.63
2023-02-27T05:41:09.230Z,94829.38
2023-02-27T05:43:43.092Z,94837.56
2023-02-27T05:46:19.497Z,94835.19
2023-02-27T05:48:56.328Z,94850.25
2023-02-27T05:51:26.800Z,94847.06
2023-02-27T05:54:00.172Z,94843.09
2023-02-27T05:56:30.776Z,94840.56
2023-02-27T05:59:25.668Z,94847.59
2023-02-27T06:01:52.506Z,94836.38
2023-02-27T06:04:19.802Z,94844.88
2023-02-27T06:06:47.793Z,94839.38
2023-02-27T06:09:16.877Z,94842.59
2023-02-27T06:11:43.574Z,94855.59
2023-02-27T06:14:10.817Z,94841.25
2023-02-27T06:16:39.135Z,94843.91
2023-02-27T06:19:06.664Z,94848.13
2023-02-27T06:21:33.460Z,94848.72
2023-02-27T06:24:00.844Z,94839.06
2023-02-27T06:26:28.258Z,94855.31
2023-02-27T06:28:55.349Z,94844.28
2023-02-27T06:31:22.266Z,94859.53
2023-02-27T06:33:48.982Z,94870.25
2023-02-27T06:36:16.212Z,94859.22
2023-02-27T06:38:42.924Z,94864.84
2023-02-27T06:41:09.831Z,94870.88
2023-02-27T06:43:37.253Z,94875.41
2023-02-27T06:46:04.358Z,94879.47
2023-02-27T06:48:31.330Z,94886.00
2023-02-27T06:50:58.327Z,94866.28
2023-02-27T06:53:25.468Z,94876.69
2023-02-27T06:55:52.264Z,94867.34
2023-02-27T06:58:19.184Z,94871.34
2023-02-27T07:00:46.445Z,94874.13
2023-02-27T07:03:13.775Z,94876.25
2023-02-27T07:05:41.900Z,94886.56
2023-02-27T07:08:09.558Z,94889.00
2023-02-27T07:10:36.565Z,94887.88
2023-02-27T07:13:03.563Z,94871.94
2023-02-27T07:15:30.378Z,94861.25
2023-02-27T07:17:57.263Z,94877.19
2023-02-27T07:20:23.990Z,94881.75
2023-02-27T07:22:51.089Z,94886.28
2023-02-27T07:25:17.923Z,94876.94
2023-02-27T07:27:46.492Z,94877.56
2023-02-27T07:30:13.705Z,94878.97
2023-02-27T07:32:40.418Z,94874.94
2023-02-27T07:35:10.249Z,94879.16
2023-02-27T07:37:36.965Z,94867.34
2023-02-27T07:40:05.378Z,94868.28
2023-02-27T07:42:32.778Z,94879.34
2023-02-27T07:45:01.792Z,94883.09
2023-02-27T07:47:30.331Z,94885.09
2023-02-27T07:49:57.244Z,94891.00
2023-02-27T07:52:24.652Z,94892.41
2023-02-27T07:54:51.388Z,94894.50
2023-02-27T07:57:18.830Z,94889.50
2023-02-27T07:59:45.572Z,94902.13
2023-02-27T08:02:12.582Z,94891.63
2023-02-27T08:04:39.384Z,94894.03
2023-02-27T08:07:06.225Z,94902.16
2023-02-27T08:09:33.400Z,94916.16
2023-02-27T08:12:00.501Z,94925.25
2023-02-27T08:14:27.486Z,94926.06
2023-02-27T08:16:54.249Z,94908.84
2023-02-27T08:19:21.058Z,94901.16
2023-02-27T08:21:48.143Z,94906.44
2023-02-27T08:24:14.833Z,94915.97
2023-02-27T08:26:41.758Z,94914.78
2023-02-27T08:29:08.460Z,94922.09
2023-02-27T08:31:35.414Z,94920.22
2023-02-27T08:34:09.883Z,94917.56
2023-02-27T08:36:37.715Z,94933.44
2023-02-27T08:39:05.532Z,94925.19
2023-02-27T08:41:32.567Z,94929.97
2023-02-27T08:43:59.261Z,94941.97
2023-02-27T08:46:26.743Z,94953.97
2023-02-27T08:48:53.900Z,94955.00
2023-02-27T08:51:20.652Z,94940.97
2023-02-27T08:53:47.515Z,94951.22
2023-02-27T08:56:14.296Z,94964.97
2023-02-27T08:58:41.145Z,94962.63
2023-02-27T09:01:08.058Z,94965.28
2023-02-27T09:03:34.867Z,94962.09
2023-02-27T09:06:01.917Z,94977.22
2023-02-27T09:08:29.408Z,94979.44
2023-02-27T09:10:57.495Z,94969.50
2023-02-27T09:13:24.629Z,94955.81
2023-02-27T09:15:51.482Z,94969.25
2023-02-27T09:18:18.716Z,94967.69
2023-02-27T09:20:45.968Z,94992.50
2023-02-27T09:23:12.961Z,94971.31
2023-02-27T09:25:39.694Z,94980.69
2023-02-27T09:28:06.416Z,94970.72
2023-02-27T09:30:33.862Z,94973.75
2023-02-27T09:33:01.140Z,94987.91
2023-02-27T09:35:28.299Z,94984.38
2023-02-27T09:37:57.593Z,95002.69
2023-02-27T09:40:27.740Z,94995.53
2023-02-27T09:43:01.300Z,95002.41
2023-02-27T09:45:30.650Z,95005.09
2023-02-27T09:48:08.296Z,95002.69
2023-02-27T09:50:44.544Z,94987.59
2023-02-27T09:53:37.434Z,95001.81
2023-02-27T09:56:16.559Z,95007.47
2023-02-27T09:58:49.245Z,95010.22
2023-02-27T10:01:40.198Z,95005.97
2023-02-27T10:04:12.868Z,95018.09
2023-02-27T10:06:52.858Z,95031.41
2023-02-27T10:09:37.740Z,95015.75
2023-02-27T10:12:41.910Z,95031.00
2023-02-27T10:15:38.780Z,95021.69
2023-02-27T10:18:28.233Z,95025.72
2023-02-27T10:21:00.339Z,95033.03
2023-02-27T10:23:50.934Z,95045.47
2023-02-27T10:26:21.377Z,95059.16
2023-02-27T10:28:48.471Z,95053.34
2023-02-27T10:31:29.588Z,95054.13
2023-02-27T10:33:58.288Z,95050.16
2023-02-27T10:36:33.684Z,95060.94
2023-02-27T10:39:07.833Z,95071.97
2023-02-27T10:41:40.044Z,95061.50
2023-02-27T10:44:07.181Z,95051.47
2023-02-27T10:46:38.246Z,95053.16
2023-02-27T10:49:16.940Z,95061.31
2023-02-27T10:51:47.057Z,95052.53
2023-02-27T10:54:23.816Z,95044.28
2023-02-27T10:56:54.728Z,95043.00
2023-02-27T10:59:31.516Z,95048.47
2023-02-27T11:02:03.575Z,95066.81
2023-02-27T11:04:37.534Z,95079.25
2023-02-27T11:07:14.410Z,95080.91
2023-02-27T11:09:41.238Z,95088.38
2023-02-27T11:12:11.023Z,95086.78
2023-02-27T11:14:50.018Z,95091.81
2023-02-27T11:17:23.397Z,95093.31
2023-02-27T11:19:50.254Z,95086.56
2023-02-27T11:22:20.820Z,95071.84
2023-02-27T11:24:48.275Z,95080.28
2023-02-27T11:27:29.437Z,95078.75
2023-02-27T11:30:02.427Z,95065.06
2023-02-27T11:32:44.545Z,95069.03
2023-02-27T11:35:32.675Z,95081.66
2023-02-27T11:38:04.047Z,95079.13
2023-02-27T11:40:34.149Z,95053.75
2023-02-27T11:43:40.165Z,95050.03
2023-02-27T11:46:34.056Z,95068.69
2023-02-27T11:49:15.632Z,95049.84
2023-02-27T11:52:04.268Z,95059.44
2023-02-27T11:54:39.914Z,95078.81
2023-02-27T11:57:28.147Z,95071.59
2023-02-27T12:00:26.345Z,95063.16
2023-02-27T12:03:04.431Z,95055.72
2023-02-27T12:05:46.169Z,95075.16
2023-02-27T12:08:36.259Z,95078.41
2023-02-27T12:11:13.669Z,95077.13
2023-02-27T12:13:45.776Z,95084.34
2023-02-27T12:16:33.319Z,95061.38
2023-02-27T12:19:13.087Z,95070.59
2023-02-27T12:22:24.957Z,95077.13
2023-02-27T12:24:58.369Z,95067.16
2023-02-27T12:27:43.433Z,95056.28
2023-02-27T12:30:28.247Z,95064.47
2023-02-27T12:33:15.017Z,95062.59
2023-02-27T12:35:44.796Z,95065.56
2023-02-27T12:38:15.313Z,95070.81
2023-02-27T12:41:33.820Z,95071.66
2023-02-27T12:44:08.147Z,95068.88
2023-02-27T12:47:00.262Z,95065.56
2023-02-27T12:49:48.248Z,95079.63
2023-02-27T12:52:27.033Z,95071.97
2023-02-27T12:55:08.644Z,95085.72
2023-02-27T12:57:41.383Z,95092.63
2023-02-27T13:00:26.093Z,95090.13
2023-02-27T13:03:27.369Z,95081.84
2023-02-27T13:06:12.759Z,95073.44
2023-02-27T13:08:39.468Z,95074.38
2023-02-27T13:11:24.783Z,95072.97
2023-02-27T13:14:35.179Z,95080.16
2023-02-27T13:17:02.166Z,95071.50
2023-02-27T13:19:53.172Z,95066.59
2023-02-27T13:22:22.454Z,95074.28
2023-02-27T13:24:52.073Z,95069.00
2023-02-27T13:27:22.159Z,95087.94
2023-02-27T13:30:05.438Z,95089.34
2023-02-27T13:32:59.351Z,95066.41
2023-02-27T13:35:42.202Z,95066.44
2023-02-27T13:38:35.264Z,95081.56
2023-02-27T13:41:20.498Z,95066.31
2023-02-27T13:43:54.292Z,95075.63
2023-02-27T13:46:29.444Z,95069.22
2023-02-27T13:49:05.367Z,95073.78
2023-02-27T13:51:35.426Z,95068.94
2023-02-27T13:54:14.249Z,95069.53
2023-02-27T13:56:49.211Z,95067.94
2023-02-27T13:59:29.035Z,95067.81
2023-02-27T14:02:07.061Z,95070.03
2023-02-27T14:04:46.013Z,95076.84
2023-02-27T14:07:18.872Z,95081.91
2023-02-27T14:09:47.607Z,95068.72
2023-02-27T14:12:30.904Z,95066.13
2023-02-27T14:15:07.849Z,95078.25
2023-02-27T14:17:37.551Z,95085.91
2023-02-27T14:20:06.649Z,95077.13
2023-02-27T14:22:38.813Z,95078.16
2023-02-27T14:25:17.957Z,95077.81
2023-02-27T14:27:51.000Z,95076.28
2023-02-27T14:30:31.466Z,95080.84
2023-02-27T14:33:08.021Z,95072.53
2023-02-27T14:35:36.179Z,95077.72
2023-02-27T14:38:11.289Z,95066.16
2023-02-27T14:40:54.004Z,95068.16
2023-02-27T14:43:35.970Z,95058.53
2023-02-27T14:46:16.703Z,95062.47
2023-02-27T14:48:43.589Z,95051.56
2023-02-27T14:51:10.333Z,95063.00
2023-02-27T14:53:37.363Z,95065.28
2023-02-27T14:56:04.528Z,95062.84
2023-02-27T14:58:31.545Z,95060.91
2023-02-27T15:01:06.122Z,95068.63
2023-02-27T15:03:38.936Z,95066.06
2023-02-27T15:06:16.460Z,95066.22
2023-02-27T15:08:48.196Z,95062.00
2023-02-27T15:11:18.447Z,95079.78
2023-02-27T15:13:47.785Z,95066.22
2023-02-27T15:16:23.969Z,95078.47
2023-02-27T15:18:54.161Z,95070.47
2023-02-27T15:21:24.505Z,95068.16
2023-02-27T15:24:00.797Z,95087.56
2023-02-27T15:26:32.738Z,95072.34
2023-02-27T15:29:00.453Z,95072.75
2023-02-27T15:31:31.436Z,95079.72
2023-02-27T15:34:02.277Z,95076.91
2023-02-27T15:36:37.413Z,95081.69
2023-02-27T15:39:06.972Z,95073.03
2023-02-27T15:41:35.052Z,95096.88
2023-02-27T15:44:03.481Z,95084.50
2023-02-27T15:46:32.132Z,95073.53
2023-02-27T15:48:59.614Z,95087.03
2023-02-27T15:51:28.108Z,95084.47
2023-02-27T15:53:58.804Z,95088.94
2023-02-27T15:56:38.707Z,95090.19
2023-02-27T15:59:06.111Z,95081.88
2023-02-27T16:01:35.237Z,95094.41
2023-02-27T16:04:13.876Z,95090.06
2023-02-27T16:06:46.494Z,95086.75
2023-02-27T16:09:24.423Z,95106.72
2023-02-27T16:12:12.375Z,95103.97
2023-02-27T16:14:44.553Z,95105.00
2023-02-27T16:17:31.620Z,95115.09
2023-02-27T16:20:02.186Z,95117.22
2023-02-27T16:22:30.548Z,95113.47
2023-02-27T16:25:11.249Z,95131.84
2023-02-27T16:27:39.544Z,95135.50
2023-02-27T16:30:12.195Z,95137.72
2023-02-27T16:32:45.768Z,95129.75
2023-02-27T16:35:22.027Z,95132.91
2023-02-27T16:37:50.601Z,95127.81
2023-02-27T16:40:23.283Z,95127.63
2023-02-27T16:42:51.424Z,95133.03
2023-02-27T16:45:22.228Z,95125.72
2023-02-27T16:47:51.301Z,95134.41
2023-02-27T16:50:31.950Z,95140.34
2023-02-27T16:52:59.004Z,95146.69
2023-02-27T16:55:26.658Z,95138.44
2023-02-27T16:57:54.037Z,95142.94
2023-02-27T17:00:22.749Z,95138.94
2023-02-27T17:02:50.308Z,95147.00
2023-02-27T17:05:18.149Z,95157.63
2023-02-27T17:07:44.954Z,95154.94
2023-02-27T17:10:16.966Z,95157.63
2023-02-27T17:12:44.187Z,95155.69
2023-02-27T17:15:11.120Z,95168.31
2023-02-27T17:17:37.836Z,95166.72
2023-02-27T17:20:07.527Z,95179.59
2023-02-27T17:22:36.866Z,95156.94
2023-02-27T17:25:04.348Z,95169.31
2023-02-27T17:27:31.154Z,95157.03
2023-02-27T17:29:58.045Z,95154.25
2023-02-27T17:32:24.756Z,95157.00
2023-02-27T17:34:55.827Z,95156.78
2023-02-27T17:37:23.894Z,95169.22
2023-02-27T17:39:50.920Z,95163.81
2023-02-27T17:42:18.725Z,95183.03
2023-02-27T17:44:46.639Z,95183.38
2023-02-27T17:47:14.364Z,95196.53
2023-02-27T17:49:41.211Z,95187.06
2023-02-27T17:52:09.027Z,95199.28
2023-02-27T17:54:36.537Z,95182.44
2023-02-27T17:57:04.938Z,95203.19
2023-02-27T17:59:31.809Z,95200.00
2023-02-27T18:01:59.298Z,95199.81
2023-02-27T18:04:26.100Z,95193.97
2023-02-27T18:06:53.902Z,95181.81
2023-02-27T18:09:20.644Z,95196.91
2023-02-27T18:11:47.763Z,95194.50
2023-02-27T18:14:14.492Z,95198.34
2023-02-27T18:16:42.606Z,95196.69
2023-02-27T18:19:09.464Z,95204.88
2023-02-27T18:21:36.537Z,95206.72
2023-02-27T18:24:03.658Z,95199.84
2023-02-27T18:26:33.004Z,95194.09
2023-02-27T18:29:10.434Z,95200.06
2023-02-27T18:31:43.262Z,95216.28
2023-02-27T18:34:10.264Z,95201.97
2023-02-27T18:36:38.383Z,95199.47
2023-02-27T18:39:06.835Z,95200.78
2023-02-27T18:41:34.756Z,95195.19
2023-02-27T18:44:01.736Z,95187.03
2023-02-27T18:46:29.243Z,95197.19
2023-02-27T18:48:56.728Z,95197.66
2023-02-27T18:51:24.554Z,95203.63
2023-02-27T18:53:51.669Z,95195.06
2023-02-27T18:56:23.333Z,95201.41
2023-02-27T18:58:50.757Z,95213.28
2023-02-27T19:01:22.925Z,95205.63
2023-02-27T19:03:51.118Z,95205.06
2023-02-27T19:06:18.113Z,95211.25
2023-02-27T19:08:46.352Z,95226.66
2023-02-27T19:11:29.681Z,95208.31
2023-02-27T19:13:57.682Z,95212.81
2023-02-27T19:16:25.375Z,95214.72
2023-02-27T19:18:53.892Z,95221.50
2023-02-27T19:21:20.697Z,95217.47
2023-02-27T19:23:47.363Z,95221.09
2023-02-27T19:26:14.404Z,95216.81
2023-02-27T19:28:41.116Z,95228.63
2023-02-27T19:31:09.903Z,95234.25
2023-02-27T19:33:37.051Z,95230.97
2023-02-27T19:36:09.871Z,95234.66
2023-02-27T19:38:37.293Z,95231.59
2023-02-27T19:41:05.726Z,95231.97
2023-02-27T19:43:34.198Z,95233.47
2023-02-27T19:46:07.529Z,95232.88
2023-02-27T19:48:34.727Z,95239.25
2023-02-27T19:51:03.516Z,95238.81
2023-02-27T19:53:31.282Z,95231.16
2023-02-27T19:56:02.687Z,95236.28
2023-02-27T19:58:30.725Z,95237.44
2023-02-27T20:00:57.562Z,95243.72
2023-02-27T20:03:24.980Z,95249.78
2023-02-27T20:05:52.023Z,95244.41
2023-02-27T20:08:19.182Z,95229.78
2023-02-27T20:11:00.436Z,95236.69
2023-02-27T20:13:27.618Z,95237.81
2023-02-27T20:16:05.806Z,95224.72
2023-02-27T20:18:33.261Z,95239.97
2023-02-27T20:21:06.291Z,95248.00
2023-02-27T20:23:35.997Z,95229.41
2023-02-27T20:26:13.829Z,95222.91
2023-02-27T20:28:41.016Z,95224.03
2023-02-27T20:31:10.409Z,95228.16
2023-02-27T20:33:37.704Z,95218.94
2023-02-27T20:36:09.301Z,95215.50
2023-02-27T20:38:40.461Z,95218.09
2023-02-27T20:41:13.583Z,95213.03
2023-02-27T20:43:42.934Z,95193.41
2023-02-27T20:46:12.679Z,95205.94
2023-02-27T20:48:40.624Z,95202.72
2023-02-27T20:51:21.897Z,95206.47
2023-02-27T20:53:51.637Z,95209.13
2023-02-27T20:56:21.200Z,95200.94
2023-02-27T20:58:48.427Z,95190.03
2023-02-27T21:01:16.491Z,95208.34
2023-02-27T21:03:44.906Z,95193.69
2023-02-27T21:06:13.964Z,95210.16
2023-02-27T21:08:43.655Z,95201.44
2023-02-27T21:11:17.128Z,95207.56
2023-02-27T21:13:45.991Z,95207.72
2023-02-27T21:16:15.314Z,95198.50
2023-02-27T21:18:42.779Z,95208.38
2023-02-27T21:21:16.629Z,95185.56
2023-02-27T21:23:44.104Z,95188.28
2023-02-27T21:26:28.591Z,95191.56
2023-02-27T21:29:05.411Z,95207.50
2023-02-27T21:31:33.702Z,95207.97
2023-02-27T21:34:02.853Z,95213.47
2023-02-27T21:36:33.575Z,95204.34
2023-02-27T21:39:07.254Z,95221.94
2023-02-27T21:41:35.675Z,95217.41
2023-02-27T21:44:05.269Z,95220.91
2023-02-27T21:46:33.661Z,95202.50
2023-02-27T21:49:01.022Z,95213.53
2023-02-27T21:51:39.616Z,95194.50
2023-02-27T21:54:09.812Z,95201.94
2023-02-27T21:56:37.680Z,95182.63
2023-02-27T21:59:04.652Z,95189.94
2023-02-27T22:01:32.683Z,95182.09
2023-02-27T22:03:59.636Z,95177.44
2023-02-27T22:06:28.205Z,95175.94
2023-02-27T22:08:57.010Z,95169.28
2023-02-27T22:11:26.133Z,95171.94
2023-02-27T22:13:53.840Z,95177.50
2023-02-27T22:16:22.179Z,95161.44
2023-02-27T22:18:49.363Z,95160.75
2023-02-27T22:21:21.076Z,95158.00
2023-02-27T22:23:48.352Z,95143.81
2023-02-27T22:26:18.275Z,95143.56
2023-02-27T22:28:45.128Z,95150.88
2023-02-27T22:31:20.913Z,95144.91
2023-02-27T22:33:51.031Z,95150.22
2023-02-27T22:36:24.222Z,95147.25
2023-02-27T22:38:51.878Z,95152.59
2023-02-27T22:41:21.965Z,95133.28
2023-02-27T22:43:48.798Z,95142.47
2023-02-27T22:46:33.519Z,95135.31
2023-02-27T22:49:03.684Z,95143.66
2023-02-27T22:51:31.177Z,95120.28
2023-02-27T22:54:00.820Z,95118.63
2023-02-27T22:56:28.087Z,95127.34
2023-02-27T22:58:55.244Z,95122.31
2023-02-27T23:01:25.384Z,95129.28
2023-02-27T23:03:54.303Z,95130.81
2023-02-27T23:06:25.324Z,95133.19
2023-02-27T23:08:52.601Z,95133.63
2023-02-27T23:11:21.329Z,95121.78
2023-02-27T23:13:48.431Z,95126.81
2023-02-27T23:16:16.063Z,95112.34
2023-02-27T23:18:46.120Z,95128.78
2023-02-27T23:21:14.053Z,95131.47
2023-02-27T23:23:40.837Z,95139.56
2023-02-27T23:26:08.407Z,95131.66
2023-02-27T23:28:36.750Z,95130.38
2023-02-27T23:31:08.012Z,95124.72
2023-02-27T23:33:35.545Z,95130.03
2023-02-27T23:36:02.749Z,95128.88
2023-02-27T23:38:29.961Z,95133.38
2023-02-27T23:40:57.115Z,95126.97
2023-02-27T23:43:24.017Z,95129.34
2023-02-27T23:45:51.187Z,95137.97
2023-02-27T23:48:18.145Z,95129.00
2023-02-27T23:50:45.069Z,95123.19
2023-02-27T23:53:16.028Z,95133.06
2023-02-27T23:55:43.787Z,95137.84
2023-02-27T23:58:11.237Z,95132.94
